Time;durP1;ratioP1;P1;durP2;ratioP2;P2;SDS_P1;SDS_P2;PMS_P1;PMS_P2;Temp;Humidity;BMP_temperature;BMP_pressure;BME280_temperature;BME280_humidity;BME280_pressure;Samples;Min_cycle;Max_cycle;Signal;HPM_P1;HPM_P2
2023/06/11 00:02:12;;;;;;;18.33;3.40;;;;;;;9.92;47.79;100447.72;5032078;28;20048;-70
2023/06/11 00:04:37;;;;;;;4.47;3.17;;;;;;;9.92;47.72;100458.38;5036575;28;20449;-71
2023/06/11 00:07:05;;;;;;;6.07;3.60;;;;;;;9.89;48.20;100448.75;5056386;28;20051;-70
2023/06/11 00:09:30;;;;;;;4.35;3.33;;;;;;;9.88;47.99;100467.47;5056498;28;20036;-71
2023/06/11 00:11:56;;;;;;;7.85;3.20;;;;;;;9.90;48.22;100450.47;5037598;28;20410;-67
2023/06/11 00:14:23;;;;;;;6.00;3.50;;;;;;;9.87;48.51;100449.78;5056188;28;20044;-64
2023/06/11 00:16:50;;;;;;;4.68;2.92;;;;;;;9.85;48.46;100441.88;5052999;28;20058;-64
2023/06/11 00:19:19;;;;;;;5.25;3.67;;;;;;;9.83;47.60;100454.41;5056075;28;20778;-66
2023/06/11 00:21:45;;;;;;;4.78;3.20;;;;;;;9.80;48.57;100444.81;5037748;28;20064;-66
2023/06/11 00:24:14;;;;;;;3.70;3.17;;;;;;;9.85;48.03;100452.50;5055312;28;20044;-67
2023/06/11 00:26:40;;;;;;;5.28;3.20;;;;;;;9.83;48.59;100465.91;5056059;28;20039;-65
2023/06/11 00:29:07;;;;;;;4.00;3.03;;;;;;;9.84;48.61;100467.63;5056161;28;20039;-66
2023/06/11 00:31:33;;;;;;;7.85;3.70;;;;;;;9.85;47.95;100457.84;5055991;28;20044;-65
2023/06/11 00:34:00;;;;;;;8.93;3.47;;;;;;;9.85;47.84;100463.16;5055806;28;20622;-72
2023/06/11 00:36:26;;;;;;;5.63;3.38;;;;;;;9.86;48.47;100459.56;5055925;28;20513;-72
2023/06/11 00:38:52;;;;;;;4.68;3.20;;;;;;;9.84;48.08;100472.09;5055875;28;20048;-70
2023/06/11 00:41:17;;;;;;;6.13;3.95;;;;;;;9.84;48.61;100498.72;5055730;28;20406;-69
2023/06/11 00:43:42;;;;;;;7.47;3.72;;;;;;;9.82;48.48;100472.19;5055782;28;20067;-71
2023/06/11 00:46:10;;;;;;;6.32;3.42;;;;;;;9.78;49.06;100457.34;5054609;28;20047;-67
2023/06/11 00:48:39;;;;;;;4.95;3.40;;;;;;;9.77;48.90;100497.34;5033912;28;20491;-68
2023/06/11 00:51:05;;;;;;;5.47;3.25;;;;;;;9.73;49.37;100474.50;5054290;28;20048;-68
2023/06/11 00:53:31;;;;;;;4.95;3.42;;;;;;;9.75;48.76;100477.94;5037362;28;20051;-67
2023/06/11 00:55:56;;;;;;;6.03;3.40;;;;;;;9.71;49.22;100476.38;5055406;28;20044;-66
2023/06/11 00:58:22;;;;;;;8.93;3.65;;;;;;;9.68;49.21;100477.44;5037620;28;20048;-66
2023/06/11 01:00:52;;;;;;;8.88;3.67;;;;;;;9.69;49.48;100489.81;5055907;28;20501;-71
2023/06/11 01:03:22;;;;;;;8.48;3.40;;;;;;;9.67;49.81;100485.50;5054029;28;20414;-66
2023/06/11 01:05:49;;;;;;;5.20;3.15;;;;;;;9.70;49.89;100480.00;5054957;28;20040;-67
2023/06/11 01:08:17;;;;;;;7.63;3.47;;;;;;;9.68;50.03;100482.75;5055678;28;20040;-65
2023/06/11 01:10:44;;;;;;;4.82;3.47;;;;;;;9.68;49.31;100476.56;5037075;28;20063;-63
2023/06/11 01:13:11;;;;;;;7.55;3.72;;;;;;;9.70;50.33;100495.97;5037284;28;20064;-67
2023/06/11 01:15:36;;;;;;;5.95;3.88;;;;;;;9.73;50.11;100491.31;5053732;28;20048;-67
2023/06/11 01:18:10;;;;;;;8.32;3.85;;;;;;;9.78;50.32;100493.75;5043228;28;20059;-66
2023/06/11 01:20:41;;;;;;;5.57;3.63;;;;;;;9.79;49.64;100484.81;5055364;28;20040;-67
2023/06/11 01:23:29;;;;;;;6.00;3.17;;;;;;;9.79;50.41;100493.69;5047968;28;20051;-67
2023/06/11 01:26:06;;;;;;;4.82;3.75;;;;;;;9.82;50.56;100495.28;5046799;28;20063;-71
2023/06/11 01:28:33;;;;;;;8.65;3.50;;;;;;;9.83;49.74;100460.59;5036695;28;20043;-68
2023/06/11 01:31:03;;;;;;;6.45;3.17;;;;;;;9.82;49.61;100496.16;5054109;28;20525;-69
2023/06/11 01:33:35;;;;;;;6.00;3.65;;;;;;;9.81;49.87;100498.91;5053617;28;20506;-67
2023/06/11 01:36:01;;;;;;;5.88;3.75;;;;;;;9.81;49.96;100494.47;5019945;28;20055;-67
2023/06/11 01:38:34;;;;;;;3.20;2.60;;;;;;;9.84;49.44;100494.25;5053929;28;20067;-67
2023/06/11 01:41:01;;;;;;;4.78;3.10;;;;;;;9.87;49.80;100498.56;5054005;28;20043;-67
2023/06/11 01:43:30;;;;;;;6.57;3.47;;;;;;;9.90;49.81;100498.41;5055098;28;20044;-67
2023/06/11 01:45:56;;;;;;;3.92;2.67;;;;;;;9.93;49.90;100486.72;5055690;28;20047;-67
2023/06/11 01:48:21;;;;;;;8.23;3.65;;;;;;;9.89;50.16;100501.16;5053087;28;20047;-66
2023/06/11 01:50:47;;;;;;;6.55;3.53;;;;;;;9.88;50.38;100510.09;5054640;28;20048;-66
2023/06/11 01:53:12;;;;;;;4.30;3.08;;;;;;;9.89;50.85;100501.16;5036440;28;20047;-67
2023/06/11 01:55:39;;;;;;;4.38;3.28;;;;;;;9.88;50.80;100504.75;5037086;28;20052;-72
2023/06/11 01:58:05;;;;;;;5.07;3.05;;;;;;;9.89;51.00;100511.81;5049248;28;20051;-67
2023/06/11 02:00:30;;;;;;;4.88;3.00;;;;;;;9.90;50.88;100513.53;5017571;28;20062;-72
2023/06/11 02:02:55;;;;;;;4.03;2.90;;;;;;;9.96;51.02;100513.19;5055099;28;20047;-69
2023/06/11 02:05:21;;;;;;;3.50;3.13;;;;;;;9.95;50.37;100506.13;5025901;28;20040;-64
2023/06/11 02:07:46;;;;;;;3.70;2.75;;;;;;;9.98;50.59;100512.16;5002793;28;20052;-65
2023/06/11 02:10:12;;;;;;;6.90;3.47;;;;;;;9.99;50.31;100503.22;5053164;28;20056;-66
2023/06/11 02:12:37;;;;;;;3.45;3.03;;;;;;;10.04;50.90;100521.63;5031097;28;20052;-65
2023/06/11 02:15:05;;;;;;;3.42;2.60;;;;;;;10.06;50.93;100459.31;5032582;28;20040;-63
2023/06/11 02:17:32;;;;;;;5.25;3.50;;;;;;;10.15;50.14;100517.44;5035830;28;20066;-66
2023/06/11 02:19:58;;;;;;;5.65;3.42;;;;;;;10.18;50.88;100517.25;5052976;28;20553;-66
2023/06/11 02:22:23;;;;;;;4.97;2.85;;;;;;;10.24;50.29;100507.22;5019695;28;20052;-65
2023/06/11 02:24:48;;;;;;;4.40;2.97;;;;;;;10.31;49.77;100517.44;5053892;28;20040;-65
2023/06/11 02:27:14;;;;;;;4.63;2.85;;;;;;;10.36;50.46;100522.53;5035793;28;20051;-63
2023/06/11 02:29:39;;;;;;;6.28;4.07;;;;;;;10.41;50.41;100526.63;5055761;28;20039;-67
2023/06/11 02:32:06;;;;;;;5.95;2.92;;;;;;;10.48;49.77;100528.03;5057432;28;20921;-65
2023/06/11 02:34:32;;;;;;;4.95;2.60;;;;;;;10.55;49.89;100529.38;5057308;28;20043;-67
2023/06/11 02:36:57;;;;;;;3.72;2.70;;;;;;;10.64;49.67;100532.44;5058546;28;20110;-68
2023/06/11 02:39:22;;;;;;;5.05;3.05;;;;;;;10.70;49.57;100532.13;5058166;28;20036;-63
2023/06/11 02:41:48;;;;;;;9.70;3.70;;;;;;;10.74;49.39;100542.50;5058079;28;20051;-68
2023/06/11 02:44:13;;;;;;;4.63;3.75;;;;;;;10.74;49.30;100538.97;5058073;28;20036;-65
2023/06/11 02:46:38;;;;;;;3.65;2.95;;;;;;;10.78;49.10;100541.38;5057769;28;20059;-69
2023/06/11 02:49:04;;;;;;;6.15;3.08;;;;;;;10.84;49.36;100562.34;5040267;28;20069;-68
2023/06/11 02:51:29;;;;;;;4.03;3.08;;;;;;;10.85;49.43;100531.22;5039482;28;20067;-68
2023/06/11 02:53:55;;;;;;;4.57;3.25;;;;;;;10.88;49.66;100542.56;5058185;28;20035;-70
2023/06/11 02:56:20;;;;;;;5.57;3.03;;;;;;;10.91;49.14;100546.88;5057756;28;20452;-80
2023/06/11 02:58:47;;;;;;;4.95;3.05;;;;;;;10.97;48.68;100540.31;5059752;28;20525;-72
2023/06/11 03:01:12;;;;;;;5.90;3.90;;;;;;;11.01;49.02;100579.22;5057540;28;20074;-76
2023/06/11 03:03:37;;;;;;;5.65;3.20;;;;;;;11.06;48.61;100539.78;5059200;28;20059;-77
2023/06/11 03:06:03;;;;;;;7.00;3.17;;;;;;;11.14;48.56;100537.50;5041285;28;20449;-76
2023/06/11 03:08:30;;;;;;;4.03;3.05;;;;;;;11.20;48.39;100554.00;5041152;28;20043;-76
2023/06/11 03:10:55;;;;;;;3.45;3.15;;;;;;;11.26;49.24;100548.31;5024169;28;20043;-77
2023/06/11 03:13:20;;;;;;;4.97;3.33;;;;;;;11.39;48.52;100552.91;5058680;28;20533;-77
2023/06/11 03:15:49;;;;;;;5.93;3.22;;;;;;;11.49;48.95;100576.31;5025618;28;20723;-76
2023/06/11 03:18:15;;;;;;;3.88;3.00;;;;;;;11.63;48.85;100557.59;5058424;28;20043;-77
2023/06/11 03:20:41;;;;;;;7.25;3.65;;;;;;;11.78;47.96;100560.31;5024358;28;20052;-77
2023/06/11 03:23:07;;;;;;;4.57;2.55;;;;;;;11.88;47.68;100557.00;5024237;28;20399;-76
2023/06/11 03:25:32;;;;;;;4.05;3.10;;;;;;;12.02;47.50;100553.47;5058242;28;20040;-77
2023/06/11 03:27:57;;;;;;;4.28;2.95;;;;;;;12.10;46.63;100561.84;5057255;28;20047;-79
2023/06/11 03:30:23;;;;;;;6.93;3.22;;;;;;;12.21;47.12;100577.19;5041198;28;20067;-78
2023/06/11 03:32:48;;;;;;;3.47;2.83;;;;;;;12.34;47.30;100559.44;5056980;28;20434;-77
2023/06/11 03:35:14;;;;;;;4.60;3.22;;;;;;;12.52;46.72;100562.75;5023186;28;20048;-78
2023/06/11 03:37:40;;;;;;;5.10;2.72;;;;;;;12.64;46.47;100552.06;5040933;28;20044;-78
2023/06/11 03:40:08;;;;;;;3.97;2.95;;;;;;;12.76;45.91;100568.28;5024192;28;20044;-77
2023/06/11 03:42:33;;;;;;;5.65;3.08;;;;;;;12.89;46.05;100587.94;5023808;28;20043;-78
2023/06/11 03:44:59;;;;;;;3.53;1.95;;;;;;;12.90;45.38;100553.03;5058028;28;20047;-78
2023/06/11 03:47:25;;;;;;;3.50;2.58;;;;;;;12.93;45.70;100578.75;5058394;28;20040;-78
2023/06/11 03:49:51;;;;;;;5.20;2.90;;;;;;;12.94;44.92;100559.91;5050555;28;20040;-79
2023/06/11 03:52:17;;;;;;;3.25;2.55;;;;;;;13.03;43.74;100574.50;5027427;28;20044;-78
2023/06/11 03:54:43;;;;;;;2.58;2.15;;;;;;;12.96;43.02;100563.34;5041111;28;20413;-79
2023/06/11 03:57:08;;;;;;;7.70;2.63;;;;;;;12.75;42.33;100563.91;5045746;28;20581;-79
2023/06/11 03:59:33;;;;;;;2.13;1.92;;;;;;;12.65;42.70;100569.00;5058642;28;20040;-77
2023/06/11 04:02:00;;;;;;;4.65;2.35;;;;;;;12.68;42.44;100564.31;5056966;28;20048;-79
2023/06/11 04:04:26;;;;;;;3.45;2.45;;;;;;;12.68;42.80;100561.63;5057846;28;20410;-76
2023/06/11 04:06:51;;;;;;;2.08;1.88;;;;;;;12.70;42.78;100566.88;5040232;28;20506;-77
2023/06/11 04:09:17;;;;;;;2.45;1.98;;;;;;;12.91;42.49;100565.47;5056993;28;20394;-77
2023/06/11 04:11:43;;;;;;;3.15;2.40;;;;;;;12.94;42.21;100570.63;5023864;28;20051;-79
2023/06/11 04:14:08;;;;;;;2.60;2.00;;;;;;;13.21;41.58;100589.34;5040426;28;20047;-79
2023/06/11 04:16:34;;;;;;;1.80;1.52;;;;;;;13.18;41.44;100560.13;5056109;28;20043;-76
2023/06/11 04:18:59;;;;;;;3.65;2.53;;;;;;;13.24;41.18;100557.03;5073156;28;20049;-76
2023/06/11 04:21:25;;;;;;;3.25;2.60;;;;;;;13.15;41.53;100563.00;5039581;28;20055;-77
2023/06/11 04:23:51;;;;;;;2.80;2.30;;;;;;;13.17;41.55;100582.50;5038763;28;20055;-77
2023/06/11 04:26:19;;;;;;;2.58;2.15;;;;;;;13.33;41.46;100593.88;5022777;28;20047;-79
2023/06/11 04:28:48;;;;;;;3.80;1.70;;;;;;;13.44;41.65;100524.38;5039544;28;20055;-78
2023/06/11 04:31:14;;;;;;;2.10;1.73;;;;;;;13.70;41.73;100559.22;5006581;28;20052;-77
2023/06/11 04:33:40;;;;;;;3.50;1.95;;;;;;;13.90;40.94;100561.34;5040192;28;20066;-78
2023/06/11 04:36:07;;;;;;;7.70;2.17;;;;;;;14.13;40.73;100557.03;5007041;28;20055;-82
2023/06/11 04:38:36;;;;;;;2.03;1.83;;;;;;;14.27;40.43;100553.34;5039486;28;20043;-77
2023/06/11 04:41:05;;;;;;;2.33;2.13;;;;;;;14.56;39.96;100565.53;5055663;28;20051;-78
2023/06/11 04:43:34;;;;;;;3.05;1.67;;;;;;;14.84;39.24;100559.84;5039539;28;20055;-80
2023/06/11 04:46:03;;;;;;;2.53;1.80;;;;;;;15.02;38.41;100556.75;5039694;28;20070;-77
2023/06/11 04:48:34;;;;;;;4.93;2.15;;;;;;;15.17;38.16;100566.34;5056140;28;20051;-77
2023/06/11 04:51:01;;;;;;;2.35;1.70;;;;;;;15.46;37.64;100562.25;5039183;28;20059;-79
2023/06/11 04:53:30;;;;;;;2.63;2.10;;;;;;;15.66;37.27;100562.59;5038438;28;20040;-77
2023/06/11 04:55:59;;;;;;;2.63;1.95;;;;;;;15.95;36.59;100570.09;5038778;28;20889;-78
2023/06/11 04:58:27;;;;;;;3.10;1.98;;;;;;;16.38;36.72;100569.34;5056069;28;20044;-77
2023/06/11 05:00:57;;;;;;;3.25;2.50;;;;;;;16.65;34.96;100574.34;5038016;28;20422;-77
2023/06/11 05:03:36;;;;;;;1.73;1.60;;;;;;;16.69;34.71;100551.59;5055098;28;20059;-78
2023/06/11 05:06:02;;;;;;;2.50;2.00;;;;;;;16.67;34.54;100577.78;5055208;28;20506;-76
2023/06/11 05:08:28;;;;;;;1.77;1.52;;;;;;;16.68;34.24;100549.88;5038713;28;20055;-76
2023/06/11 05:10:59;;;;;;;3.42;2.30;;;;;;;16.60;34.12;100538.84;5020118;28;20043;-77
2023/06/11 05:13:26;;;;;;;5.15;2.38;;;;;;;16.71;33.48;100546.91;5037252;28;20063;-76
2023/06/11 05:15:57;;;;;;;5.22;1.60;;;;;;;16.76;33.39;100554.63;5036855;28;20051;-75
2023/06/11 05:18:25;;;;;;;3.60;1.83;;;;;;;16.95;33.23;100561.03;5054162;28;20063;-78
2023/06/11 05:20:53;;;;;;;3.70;2.40;;;;;;;17.00;33.09;100553.44;5054163;28;20044;-76
2023/06/11 05:23:21;;;;;;;3.38;1.60;;;;;;;17.09;33.07;100553.66;5036770;28;20055;-77
2023/06/11 05:25:47;;;;;;;5.20;1.77;;;;;;;17.19;32.91;100557.28;5037290;28;20048;-76
2023/06/11 05:28:17;;;;;;;2.30;2.10;;;;;;;17.28;33.00;100573.50;5020909;28;20043;-77
2023/06/11 05:30:46;;;;;;;2.20;1.98;;;;;;;17.34;32.27;100564.94;5037079;28;20052;-73
2023/06/11 05:33:22;;;;;;;2.80;1.83;;;;;;;17.23;32.31;100564.97;5054765;28;20544;-71
2023/06/11 05:35:49;;;;;;;1.90;1.73;;;;;;;17.30;32.08;100555.38;5054887;28;20040;-78
2023/06/11 05:38:17;;;;;;;1.77;1.67;;;;;;;17.30;32.25;100550.00;5039120;28;20052;-78
2023/06/11 05:40:42;;;;;;;2.92;2.00;;;;;;;17.40;32.08;100555.44;5056411;28;20047;-77
2023/06/11 05:43:08;;;;;;;2.67;2.13;;;;;;;17.79;31.43;100556.59;5054983;28;20058;-76
2023/06/11 05:45:35;;;;;;;3.33;2.22;;;;;;;17.90;30.49;100555.66;5036771;28;20044;-75
2023/06/11 05:48:03;;;;;;;3.28;1.83;;;;;;;18.21;30.43;100540.31;5037074;28;20047;-73
2023/06/11 05:50:31;;;;;;;1.55;1.45;;;;;;;18.48;30.05;100559.44;5036835;28;20533;-75
2023/06/11 05:52:56;;;;;;;2.55;1.92;;;;;;;18.22;28.83;100558.22;5037479;28;20067;-75
2023/06/11 05:55:22;;;;;;;4.00;1.80;;;;;;;18.23;28.78;100541.88;5037590;28;20407;-76
2023/06/11 05:57:47;;;;;;;4.97;2.20;;;;;;;18.48;28.76;100564.84;5053974;28;20048;-77
2023/06/11 06:00:13;;;;;;;2.80;1.90;;;;;;;18.72;27.49;100546.47;5054126;28;20047;-74
2023/06/11 06:02:41;;;;;;;1.92;1.73;;;;;;;19.06;26.82;100560.44;5054800;28;20059;-75
2023/06/11 06:05:14;;;;;;;2.35;1.90;;;;;;;19.70;26.62;100543.59;5005028;28;20044;-75
2023/06/11 06:07:39;;;;;;;5.47;2.05;;;;;;;20.38;25.91;100537.97;5037061;28;20044;-75
2023/06/11 06:10:05;;;;;;;7.47;1.80;;;;;;;21.31;25.35;100522.19;5053841;28;20059;-76
2023/06/11 06:12:31;;;;;;;4.57;2.35;;;;;;;22.02;24.16;100505.69;5036633;28;20051;-74
2023/06/11 06:14:56;;;;;;;2.65;1.83;;;;;;;22.01;23.66;100517.56;5036335;28;20044;-75
2023/06/11 06:17:22;;;;;;;3.42;2.35;;;;;;;22.27;23.37;100514.81;5053427;28;20395;-75
2023/06/11 06:19:48;;;;;;;3.22;2.45;;;;;;;22.41;23.15;100532.34;5036626;28;20067;-74
2023/06/11 06:22:15;;;;;;;1.77;1.52;;;;;;;22.16;22.54;100511.53;5020368;28;20426;-77
2023/06/11 06:24:41;;;;;;;5.90;2.30;;;;;;;21.82;23.57;100473.50;5037053;28;20052;-76
2023/06/11 06:27:07;;;;;;;4.13;2.60;;;;;;;21.63;23.94;100450.16;5053689;28;20045;-77
2023/06/11 06:29:38;;;;;;;3.00;2.55;;;;;;;21.98;23.41;100457.28;5019811;28;20387;-74
2023/06/11 06:32:05;;;;;;;6.82;2.67;;;;;;;22.80;23.09;100454.66;5036033;28;20051;-75
2023/06/11 06:34:31;;;;;;;2.17;1.98;;;;;;;23.39;22.83;100455.34;5019508;28;20063;-77
2023/06/11 06:36:58;;;;;;;4.70;2.58;;;;;;;24.08;22.00;100451.09;5036380;28;20036;-74
2023/06/11 06:39:23;;;;;;;2.35;1.95;;;;;;;23.97;21.44;100446.03;5019825;28;20052;-75
2023/06/11 06:41:49;;;;;;;2.80;2.33;;;;;;;23.56;21.92;100441.75;5036578;28;20051;-74
2023/06/11 06:44:19;;;;;;;3.05;2.45;;;;;;;24.30;22.14;100443.16;5019152;28;20059;-74
2023/06/11 06:46:44;;;;;;;5.25;2.47;;;;;;;24.73;21.53;100442.56;5036456;28;20039;-75
2023/06/11 06:49:10;;;;;;;7.95;2.50;;;;;;;24.87;21.31;100449.94;5035761;28;20056;-76
2023/06/11 06:51:37;;;;;;;8.93;2.60;;;;;;;25.62;21.19;100436.34;5036490;28;20043;-76
2023/06/11 06:54:02;;;;;;;5.20;2.70;;;;;;;26.10;21.03;100442.25;5036160;28;20059;-75
2023/06/11 06:56:28;;;;;;;2.85;2.42;;;;;;;26.31;20.64;100439.59;5035834;28;20044;-77
2023/06/11 06:58:53;;;;;;;3.97;2.80;;;;;;;26.12;20.05;100451.13;5036785;28;20048;-77
2023/06/11 07:01:18;;;;;;;3.25;1.92;;;;;;;26.65;20.13;100451.75;5052760;28;20048;-74
2023/06/11 07:03:44;;;;;;;4.22;2.92;;;;;;;25.68;20.79;100454.72;5049428;28;20060;-74
2023/06/11 07:06:09;;;;;;;4.00;3.28;;;;;;;25.17;19.69;100493.75;5016233;28;20044;-74
2023/06/11 07:08:38;;;;;;;4.13;2.35;;;;;;;25.78;20.58;100448.13;5016275;28;20040;-72
2023/06/11 07:11:03;;;;;;;5.15;2.85;;;;;;;25.47;20.38;100448.25;5049924;28;20048;-73
2023/06/11 07:13:39;;;;;;;3.08;2.67;;;;;;;25.81;20.43;100436.81;5032869;28;20048;-74
2023/06/11 07:16:06;;;;;;;7.35;3.88;;;;;;;26.55;20.34;100440.28;5031261;28;20503;-73
2023/06/11 07:18:32;;;;;;;3.60;2.83;;;;;;;26.60;20.00;100435.09;5019318;28;20530;-72
2023/06/11 07:20:58;;;;;;;3.53;2.95;;;;;;;25.66;20.38;100445.00;5037101;28;20044;-73
2023/06/11 07:23:24;;;;;;;3.47;2.60;;;;;;;26.13;20.73;100438.31;5036370;28;20055;-75
2023/06/11 07:25:50;;;;;;;4.18;2.85;;;;;;;27.61;20.30;100453.97;5049816;28;20055;-75
2023/06/11 07:28:17;;;;;;;8.68;3.20;;;;;;;28.61;18.63;100444.31;5045595;28;20506;-79
2023/06/11 07:30:43;;;;;;;4.35;2.67;;;;;;;29.18;18.10;100447.38;5036252;28;20459;-76
2023/06/11 07:33:08;;;;;;;3.38;3.08;;;;;;;29.64;17.53;100446.53;5052590;28;20041;-77
2023/06/11 07:35:34;;;;;;;5.18;3.25;;;;;;;28.95;17.63;100430.47;4999285;28;20530;-74
2023/06/11 07:38:01;;;;;;;3.30;3.00;;;;;;;29.40;17.88;100444.47;5032771;28;20044;-76
2023/06/11 07:40:26;;;;;;;2.97;2.67;;;;;;;30.77;17.43;100436.81;5035804;28;20055;-76
2023/06/11 07:42:51;;;;;;;4.22;3.03;;;;;;;31.46;16.41;100432.28;5044491;28;20052;-75
2023/06/11 07:45:17;;;;;;;3.60;3.00;;;;;;;31.78;16.56;100436.63;5064509;28;20059;-76
2023/06/11 07:47:42;;;;;;;4.15;3.22;;;;;;;32.26;16.42;100447.78;5016595;28;20052;-76
2023/06/11 07:50:10;;;;;;;5.50;2.75;;;;;;;32.51;16.50;100433.00;5051017;28;20044;-75
2023/06/11 07:52:36;;;;;;;4.90;3.00;;;;;;;32.66;15.75;100431.50;5035658;28;20044;-72
2023/06/11 07:55:09;;;;;;;4.97;3.05;;;;;;;33.46;15.93;100429.19;5018636;28;20055;-72
2023/06/11 07:57:35;;;;;;;6.22;3.30;;;;;;;34.20;15.64;100426.72;5037140;28;20051;-72
2023/06/11 08:00:00;;;;;;;3.72;3.42;;;;;;;34.84;15.35;100430.22;5036757;28;20518;-76
2023/06/11 08:02:26;;;;;;;4.22;3.88;;;;;;;35.27;15.06;100435.16;5032288;28;20396;-76
2023/06/11 08:04:51;;;;;;;4.95;3.22;;;;;;;35.41;14.81;100432.88;5012752;28;20535;-74
2023/06/11 08:07:17;;;;;;;3.50;3.20;;;;;;;35.63;14.39;100439.31;5027597;28;20047;-75
2023/06/11 08:09:42;;;;;;;3.47;3.20;;;;;;;35.68;13.93;100434.66;5036829;28;20055;-76
2023/06/11 08:12:08;;;;;;;4.97;3.58;;;;;;;36.05;14.15;100444.38;5018858;28;20047;-77
2023/06/11 08:14:34;;;;;;;4.75;3.55;;;;;;;36.58;14.20;100446.41;4982192;28;20049;-76
2023/06/11 08:17:00;;;;;;;6.15;4.10;;;;;;;37.50;13.75;100434.25;5034415;28;20048;-77
2023/06/11 08:19:26;;;;;;;5.82;4.90;;;;;;;37.28;13.53;100424.09;5001920;28;20059;-74
2023/06/11 08:21:51;;;;;;;4.40;4.00;;;;;;;37.02;13.50;100425.78;5035769;28;20044;-77
2023/06/11 08:24:18;;;;;;;5.07;4.25;;;;;;;36.99;13.27;100417.97;5036778;28;20044;-77
2023/06/11 08:26:43;;;;;;;5.07;4.35;;;;;;;36.81;13.51;100437.81;5036743;28;20051;-76
2023/06/11 08:29:09;;;;;;;4.07;3.75;;;;;;;36.26;13.14;100447.19;5017800;28;20411;-76
2023/06/11 08:31:34;;;;;;;5.28;3.90;;;;;;;36.13;13.28;100438.34;5035629;28;20048;-76
2023/06/11 08:33:59;;;;;;;4.60;3.75;;;;;;;36.14;13.30;100429.78;5036765;28;20397;-74
2023/06/11 08:36:26;;;;;;;5.07;3.80;;;;;;;36.39;13.37;100420.94;5001555;28;20060;-76
2023/06/11 08:38:51;;;;;;;4.18;3.78;;;;;;;37.12;13.34;100416.72;5032023;28;20048;-74
2023/06/11 08:41:16;;;;;;;4.78;3.90;;;;;;;37.77;13.22;100408.03;5036263;28;20040;-74
2023/06/11 08:43:42;;;;;;;4.55;4.15;;;;;;;37.63;12.66;100415.19;5014895;28;20064;-76
2023/06/11 08:46:13;;;;;;;4.40;4.10;;;;;;;36.76;12.77;100415.53;5032631;28;20041;-74
2023/06/11 08:48:41;;;;;;;4.28;3.95;;;;;;;35.66;13.57;100408.31;5041555;28;20045;-76
2023/06/11 08:51:09;;;;;;;4.18;3.85;;;;;;;35.61;13.88;100409.06;5007390;28;20041;-76
2023/06/11 08:53:35;;;;;;;5.15;4.20;;;;;;;35.22;13.58;100391.50;5042902;28;20044;-76
2023/06/11 08:56:01;;;;;;;4.03;3.65;;;;;;;35.64;13.72;100391.91;5025060;28;20155;-74
2023/06/11 08:58:29;;;;;;;5.82;3.75;;;;;;;36.67;13.58;100392.09;5010825;28;20525;-75
2023/06/11 09:00:55;;;;;;;11.60;4.22;;;;;;;37.04;12.62;100392.16;5036424;28;20048;-76
2023/06/11 09:03:20;;;;;;;4.75;3.92;;;;;;;36.87;12.91;100383.97;5048942;28;20064;-75
2023/06/11 09:05:46;;;;;;;4.70;3.88;;;;;;;37.12;12.68;100379.72;5037997;28;20051;-76
2023/06/11 09:08:12;;;;;;;4.45;4.15;;;;;;;36.96;12.70;100389.88;5055793;28;20052;-74
2023/06/11 09:10:48;;;;;;;5.40;4.20;;;;;;;37.13;13.00;100389.75;5055639;28;20043;-75
2023/06/11 09:13:14;;;;;;;4.85;3.67;;;;;;;36.43;13.10;100385.16;5055906;28;20040;-77
2023/06/11 09:15:47;;;;;;;5.18;3.92;;;;;;;36.96;13.50;100385.16;5054925;28;20047;-78
2023/06/11 09:18:22;;;;;;;4.00;3.63;;;;;;;36.07;13.44;100383.88;5054844;28;20048;-77
2023/06/11 09:20:51;;;;;;;5.07;3.80;;;;;;;35.50;13.68;100375.88;5037242;28;20040;-76
2023/06/11 09:23:27;;;;;;;4.47;3.88;;;;;;;35.77;13.86;100385.19;5037618;28;20047;-75
2023/06/11 09:25:53;;;;;;;4.10;3.80;;;;;;;35.66;14.11;100377.78;5020587;28;20056;-75
2023/06/11 09:28:18;;;;;;;25.80;23.20;;;;;;;36.55;13.66;100377.53;5055733;28;20450;-75
2023/06/11 09:30:53;;;;;;;7.68;4.70;;;;;;;36.97;13.16;100386.00;5036615;28;20418;-74
2023/06/11 09:33:18;;;;;;;4.18;3.78;;;;;;;36.02;13.31;100368.00;5055861;28;20039;-75
2023/06/11 09:35:45;;;;;;;4.57;4.07;;;;;;;34.92;13.93;100366.91;5055631;28;20036;-78
2023/06/11 09:38:15;;;;;;;7.25;4.90;;;;;;;33.91;14.59;100367.72;5020981;28;20055;-75
2023/06/11 09:40:48;;;;;;;6.97;4.00;;;;;;;33.50;15.45;100361.28;5019454;28;20044;-76
2023/06/11 09:43:14;;;;;;;7.70;4.43;;;;;;;34.02;15.28;100360.47;5036968;28;20067;-76
2023/06/11 09:45:40;;;;;;;21.75;15.15;;;;;;;34.92;14.70;100346.69;5054793;28;20044;-74
2023/06/11 09:48:06;;;;;;;5.28;4.30;;;;;;;35.83;14.60;100353.63;5053586;28;20059;-75
2023/06/11 09:50:33;;;;;;;3.80;3.60;;;;;;;35.49;14.01;100352.84;5036356;28;20043;-74
2023/06/11 09:53:02;;;;;;;5.43;3.70;;;;;;;35.37;14.44;100356.81;5019775;28;20055;-73
2023/06/11 09:55:34;;;;;;;8.82;4.50;;;;;;;35.03;14.50;100351.28;5037035;28;20543;-77
2023/06/11 09:58:01;;;;;;;4.80;3.60;;;;;;;35.39;14.43;100355.47;5053762;28;20055;-76
2023/06/11 10:00:27;;;;;;;3.80;3.40;;;;;;;35.24;14.99;100344.97;5055105;28;20084;-74
2023/06/11 10:02:52;;;;;;;4.50;3.60;;;;;;;34.63;15.08;100337.59;5019934;28;20557;-76
2023/06/11 10:05:17;;;;;;;8.50;3.63;;;;;;;34.20;14.92;100360.28;5054975;28;20040;-75
2023/06/11 10:07:47;;;;;;;3.75;3.47;;;;;;;33.62;15.24;100341.91;5055050;28;20500;-76
2023/06/11 10:10:16;;;;;;;5.20;3.75;;;;;;;33.30;15.48;100348.88;5053663;28;20040;-75
2023/06/11 10:12:48;;;;;;;3.58;3.30;;;;;;;33.03;15.51;100338.31;5054277;28;20044;-77
2023/06/11 10:15:16;;;;;;;4.03;3.28;;;;;;;32.26;15.46;100347.59;5053037;28;20530;-74
2023/06/11 10:17:48;;;;;;;4.57;3.35;;;;;;;32.05;16.06;100337.88;5053324;28;20059;-76
2023/06/11 10:20:26;;;;;;;6.80;3.50;;;;;;;33.32;15.44;100336.50;5036897;28;20044;-75
2023/06/11 10:23:03;;;;;;;3.58;3.28;;;;;;;34.62;15.10;100349.75;5054219;28;20126;-75
2023/06/11 10:25:33;;;;;;;3.88;3.50;;;;;;;35.61;14.56;100344.41;5041245;28;20110;-75
2023/06/11 10:27:58;;;;;;;4.30;3.83;;;;;;;36.70;13.90;100322.09;5054508;28;20494;-75
2023/06/11 10:30:24;;;;;;;4.15;3.85;;;;;;;37.20;13.57;100331.97;5054502;28;20032;-76
2023/06/11 10:32:49;;;;;;;9.60;4.25;;;;;;;35.83;13.55;100331.41;5054361;28;20051;-76
2023/06/11 10:35:22;;;;;;;6.05;3.75;;;;;;;33.66;14.80;100314.59;5035158;28;20094;-74
2023/06/11 10:37:48;;;;;;;5.88;3.97;;;;;;;30.19;16.17;100332.38;5034244;28;20055;-79
2023/06/11 10:40:14;;;;;;;6.65;3.65;;;;;;;27.99;18.23;100320.06;5038166;28;20048;-77
2023/06/11 10:42:41;;;;;;;5.95;3.20;;;;;;;26.41;18.95;100326.38;5055710;28;20411;-76
2023/06/11 10:45:09;;;;;;;7.15;3.33;;;;;;;25.54;20.43;100334.53;5054901;28;20043;-78
2023/06/11 10:47:42;;;;;;;3.88;3.15;;;;;;;24.76;21.19;100330.38;5034386;28;20517;-76
2023/06/11 10:50:09;;;;;;;4.15;2.85;;;;;;;24.11;21.12;100321.84;5031585;28;20059;-74
2023/06/11 10:52:51;;;;;;;3.10;2.55;;;;;;;23.66;21.49;100322.63;5038289;28;20047;-75
2023/06/11 10:55:21;;;;;;;5.25;3.47;;;;;;;23.00;22.27;100321.94;5038810;28;20510;-74
2023/06/11 10:57:51;;;;;;;4.38;2.45;;;;;;;22.28;22.27;100320.06;5039665;28;20056;-77
2023/06/11 11:00:17;;;;;;;5.30;2.95;;;;;;;21.48;23.44;100318.81;5039357;28;20106;-76
2023/06/11 11:02:43;;;;;;;4.68;3.60;;;;;;;21.02;24.27;100312.78;5055984;28;20052;-75
2023/06/11 11:05:09;;;;;;;5.97;3.50;;;;;;;20.78;25.14;100326.16;5041150;28;20036;-77
2023/06/11 11:07:35;;;;;;;3.20;2.78;;;;;;;20.76;25.10;100320.09;5059752;28;20044;-81
2023/06/11 11:10:02;;;;;;;4.00;2.78;;;;;;;20.55;25.21;100320.41;5059045;28;20040;-76
2023/06/11 11:12:38;;;;;;;5.38;2.83;;;;;;;20.35;25.59;100321.56;5057451;28;20047;-77
2023/06/11 11:15:04;;;;;;;3.60;2.50;;;;;;;20.05;25.60;100320.09;5059368;28;20046;-77
2023/06/11 11:17:30;;;;;;;2.60;2.33;;;;;;;19.68;26.19;100303.97;5041714;28;20036;-77
2023/06/11 11:19:56;;;;;;;2.20;2.00;;;;;;;19.61;26.52;100306.44;5058301;28;20032;-76
2023/06/11 11:22:21;;;;;;;2.83;2.30;;;;;;;19.67;26.44;100311.22;5040595;28;20518;-76
2023/06/11 11:24:47;;;;;;;6.55;3.22;;;;;;;19.66;26.49;100308.66;5059207;28;20044;-78
2023/06/11 11:27:12;;;;;;;5.60;2.67;;;;;;;19.64;26.29;100311.53;5058909;28;20044;-75